sensor_id;sensor_type;location;lat;lon;timestamp;pressure;altitude;pressure_sealevel;temperature;humidity
15382;BME280;7789;51.364;12.358;2023-05-25T00:04:08;101104.59;;;11.62;95.37
15382;BME280;7789;51.364;12.358;2023-05-25T00:09:20;101105.06;;;11.56;96.11
15382;BME280;7789;51.364;12.358;2023-05-25T00:14:26;101102.88;;;11.50;96.61
15382;BME280;7789;51.364;12.358;2023-05-25T00:19:34;101108.53;;;11.44;97.17
15382;BME280;7789;51.364;12.358;2023-05-25T00:24:38;101104.56;;;11.39;97.57
15382;BME280;7789;51.364;12.358;2023-05-25T00:29:45;101107.56;;;11.34;97.91
15382;BME280;7789;51.364;12.358;2023-05-25T00:34:55;101123.69;;;11.28;98.35
15382;BME280;7789;51.364;12.358;2023-05-25T00:40:02;101116.38;;;11.21;98.49
15382;BME280;7789;51.364;12.358;2023-05-25T00:45:10;101114.22;;;11.15;98.15
15382;BME280;7789;51.364;12.358;2023-05-25T00:50:18;101118.97;;;11.10;98.49
15382;BME280;7789;51.364;12.358;2023-05-25T00:55:26;101120.31;;;11.03;99.51
15382;BME280;7789;51.364;12.358;2023-05-25T01:00:33;101132.91;;;10.98;100.00
15382;BME280;7789;51.364;12.358;2023-05-25T01:05:47;101131.56;;;10.93;100.00
15382;BME280;7789;51.364;12.358;2023-05-25T01:10:53;101124.97;;;10.87;100.00
15382;BME280;7789;51.364;12.358;2023-05-25T01:16:03;101128.53;;;10.86;100.00
15382;BME280;7789;51.364;12.358;2023-05-25T01:21:13;101129.81;;;10.81;100.00
15382;BME280;7789;51.364;12.358;2023-05-25T01:26:23;101122.31;;;10.76;100.00
15382;BME280;7789;51.364;12.358;2023-05-25T01:31:30;101111.31;;;10.71;100.00
15382;BME280;7789;51.364;12.358;2023-05-25T01:36:42;101120.94;;;10.71;100.00
15382;BME280;7789;51.364;12.358;2023-05-25T01:41:57;101129.84;;;10.68;100.00
15382;BME280;7789;51.364;12.358;2023-05-25T01:47:16;101123.16;;;10.64;100.00
15382;BME280;7789;51.364;12.358;2023-05-25T01:52:37;101127.75;;;10.61;100.00
15382;BME280;7789;51.364;12.358;2023-05-25T01:57:49;101114.91;;;10.58;100.00
15382;BME280;7789;51.364;12.358;2023-05-25T02:02:55;101129.97;;;10.54;100.00
15382;BME280;7789;51.364;12.358;2023-05-25T02:08:03;101128.63;;;10.49;100.00
15382;BME280;7789;51.364;12.358;2023-05-25T02:13:08;101122.88;;;10.44;100.00
15382;BME280;7789;51.364;12.358;2023-05-25T02:18:13;101122.34;;;10.39;100.00
15382;BME280;7789;51.364;12.358;2023-05-25T02:23:20;101124.25;;;10.37;100.00
15382;BME280;7789;51.364;12.358;2023-05-25T02:28:31;101122.78;;;10.33;100.00
15382;BME280;7789;51.364;12.358;2023-05-25T02:33:39;101117.75;;;10.30;100.00
15382;BME280;7789;51.364;12.358;2023-05-25T02:38:47;101118.69;;;10.29;100.00
15382;BME280;7789;51.364;12.358;2023-05-25T02:43:54;101117.22;;;10.25;100.00
15382;BME280;7789;51.364;12.358;2023-05-25T02:49:00;101118.38;;;10.21;100.00
15382;BME280;7789;51.364;12.358;2023-05-25T02:54:08;101110.84;;;10.16;100.00
15382;BME280;7789;51.364;12.358;2023-05-25T02:59:16;101116.22;;;10.15;100.00
15382;BME280;7789;51.364;12.358;2023-05-25T03:04:25;101121.63;;;10.12;100.00
15382;BME280;7789;51.364;12.358;2023-05-25T03:09:40;101121.63;;;10.12;100.00
15382;BME280;7789;51.364;12.358;2023-05-25T03:14:47;101125.16;;;10.11;100.00
15382;BME280;7789;51.364;12.358;2023-05-25T03:19:57;101130.50;;;10.09;100.00
15382;BME280;7789;51.364;12.358;2023-05-25T03:25:05;101141.91;;;10.08;100.00
15382;BME280;7789;51.364;12.358;2023-05-25T03:30:12;101133.22;;;10.08;100.00
15382;BME280;7789;51.364;12.358;2023-05-25T03:35:17;101136.69;;;10.08;100.00
15382;BME280;7789;51.364;12.358;2023-05-25T03:40:23;101144.31;;;10.11;100.00
15382;BME280;7789;51.364;12.358;2023-05-25T03:45:28;101144.00;;;10.16;100.00
15382;BME280;7789;51.364;12.358;2023-05-25T03:50:39;101154.88;;;10.22;100.00
15382;BME280;7789;51.364;12.358;2023-05-25T03:55:45;101157.06;;;10.28;100.00
15382;BME280;7789;51.364;12.358;2023-05-25T04:00:54;101165.31;;;10.35;100.00
15382;BME280;7789;51.364;12.358;2023-05-25T04:06:00;101170.13;;;10.41;100.00
15382;BME280;7789;51.364;12.358;2023-05-25T04:11:06;101180.78;;;10.50;100.00
15382;BME280;7789;51.364;12.358;2023-05-25T04:16:11;101199.19;;;10.61;100.00
15382;BME280;7789;51.364;12.358;2023-05-25T04:21:23;101200.13;;;10.73;100.00
15382;BME280;7789;51.364;12.358;2023-05-25T04:26:30;101193.94;;;10.86;100.00
15382;BME280;7789;51.364;12.358;2023-05-25T04:31:44;101203.84;;;11.06;100.00
15382;BME280;7789;51.364;12.358;2023-05-25T04:36:50;101192.81;;;11.26;100.00
15382;BME280;7789;51.364;12.358;2023-05-25T04:47:34;101187.25;;;11.54;100.00
15382;BME280;7789;51.364;12.358;2023-05-25T04:52:38;101175.81;;;13.02;100.00
15382;BME280;7789;51.364;12.358;2023-05-25T04:57:41;101182.88;;;14.98;91.77
15382;BME280;7789;51.364;12.358;2023-05-25T05:02:46;101172.59;;;16.48;82.38
15382;BME280;7789;51.364;12.358;2023-05-25T05:07:49;101162.03;;;18.08;75.89
15382;BME280;7789;51.364;12.358;2023-05-25T05:12:54;101172.25;;;19.62;68.92
15382;BME280;7789;51.364;12.358;2023-05-25T05:17:59;101180.16;;;20.90;62.48
15382;BME280;7789;51.364;12.358;2023-05-25T05:23:02;101184.31;;;21.84;59.13
15382;BME280;7789;51.364;12.358;2023-05-25T05:28:06;101189.59;;;23.09;54.81
15382;BME280;7789;51.364;12.358;2023-05-25T05:33:13;101200.69;;;24.12;50.41
15382;BME280;7789;51.364;12.358;2023-05-25T05:38:17;101215.94;;;23.12;52.25
15382;BME280;7789;51.364;12.358;2023-05-25T05:43:21;101213.44;;;22.30;53.63
15382;BME280;7789;51.364;12.358;2023-05-25T05:48:25;101218.84;;;22.37;53.09
15382;BME280;7789;51.364;12.358;2023-05-25T05:53:28;101225.91;;;22.30;53.19
15382;BME280;7789;51.364;12.358;2023-05-25T05:58:33;101225.00;;;22.37;52.45
15382;BME280;7789;51.364;12.358;2023-05-25T06:03:37;101230.03;;;22.55;52.17
15382;BME280;7789;51.364;12.358;2023-05-25T06:08:41;101231.13;;;23.11;51.46
15382;BME280;7789;51.364;12.358;2023-05-25T06:13:45;101230.94;;;23.63;49.83
15382;BME280;7789;51.364;12.358;2023-05-25T06:18:49;101226.09;;;25.45;46.68
15382;BME280;7789;51.364;12.358;2023-05-25T06:23:54;101228.94;;;26.94;43.70
15382;BME280;7789;51.364;12.358;2023-05-25T06:29:02;101225.69;;;28.49;41.80
15382;BME280;7789;51.364;12.358;2023-05-25T06:34:07;101228.84;;;28.15;41.39
15382;BME280;7789;51.364;12.358;2023-05-25T06:39:10;101227.38;;;28.85;39.82
15382;BME280;7789;51.364;12.358;2023-05-25T06:44:13;101223.91;;;27.74;41.46
15382;BME280;7789;51.364;12.358;2023-05-25T06:49:18;101220.03;;;27.13;43.31
15382;BME280;7789;51.364;12.358;2023-05-25T06:54:23;101224.16;;;26.96;43.19
15382;BME280;7789;51.364;12.358;2023-05-25T06:59:26;101228.56;;;26.33;44.62
15382;BME280;7789;51.364;12.358;2023-05-25T07:04:31;101221.91;;;25.90;44.91
15382;BME280;7789;51.364;12.358;2023-05-25T07:09:35;101232.03;;;25.41;45.69
15382;BME280;7789;51.364;12.358;2023-05-25T07:14:41;101229.63;;;26.58;44.31
15382;BME280;7789;51.364;12.358;2023-05-25T07:19:50;101226.66;;;25.28;45.40
15382;BME280;7789;51.364;12.358;2023-05-25T07:24:56;101238.88;;;26.23;44.71
15382;BME280;7789;51.364;12.358;2023-05-25T07:30:00;101226.06;;;25.05;46.98
15382;BME280;7789;51.364;12.358;2023-05-25T07:35:06;101225.16;;;24.37;47.33
15382;BME280;7789;51.364;12.358;2023-05-25T07:40:10;101223.16;;;24.18;48.26
15382;BME280;7789;51.364;12.358;2023-05-25T07:45:14;101213.69;;;24.43;48.86
15382;BME280;7789;51.364;12.358;2023-05-25T07:50:20;101224.81;;;24.19;47.75
15382;BME280;7789;51.364;12.358;2023-05-25T07:55:26;101224.47;;;24.07;48.14
15382;BME280;7789;51.364;12.358;2023-05-25T08:00:33;101232.47;;;23.51;48.45
15382;BME280;7789;51.364;12.358;2023-05-25T08:05:37;101237.28;;;22.97;50.21
15382;BME280;7789;51.364;12.358;2023-05-25T08:10:41;101234.75;;;22.30;51.04
15382;BME280;7789;51.364;12.358;2023-05-25T08:15:44;101232.88;;;22.16;52.55
15382;BME280;7789;51.364;12.358;2023-05-25T08:20:49;101232.41;;;22.50;53.20
15382;BME280;7789;51.364;12.358;2023-05-25T08:25:53;101242.91;;;22.29;53.00
15382;BME280;7789;51.364;12.358;2023-05-25T08:30:56;101242.44;;;22.03;53.68
15382;BME280;7789;51.364;12.358;2023-05-25T08:36:01;101242.91;;;21.84;54.19
15382;BME280;7789;51.364;12.358;2023-05-25T08:41:06;101237.06;;;21.88;53.85
15382;BME280;7789;51.364;12.358;2023-05-25T08:46:10;101251.44;;;21.79;53.24
15382;BME280;7789;51.364;12.358;2023-05-25T08:51:15;101263.06;;;21.78;53.22
15382;BME280;7789;51.364;12.358;2023-05-25T08:56:19;101251.78;;;21.99;53.55
15382;BME280;7789;51.364;12.358;2023-05-25T09:01:29;101251.53;;;21.86;53.28
15382;BME280;7789;51.364;12.358;2023-05-25T09:06:35;101263.31;;;21.61;53.14
15382;BME280;7789;51.364;12.358;2023-05-25T09:11:40;101268.50;;;21.54;52.27
15382;BME280;7789;51.364;12.358;2023-05-25T09:16:46;101264.47;;;21.58;51.66
15382;BME280;7789;51.364;12.358;2023-05-25T09:21:51;101264.41;;;21.36;51.27
15382;BME280;7789;51.364;12.358;2023-05-25T09:27:19;101256.56;;;21.50;49.01
15382;BME280;7789;51.364;12.358;2023-05-25T09:32:24;101263.69;;;21.50;49.15
15382;BME280;7789;51.364;12.358;2023-05-25T09:37:29;101270.13;;;21.17;49.05
15382;BME280;7789;51.364;12.358;2023-05-25T09:42:33;101272.72;;;20.86;49.11
15382;BME280;7789;51.364;12.358;2023-05-25T09:47:36;101268.91;;;20.89;48.60
15382;BME280;7789;51.364;12.358;2023-05-25T09:52:44;101263.25;;;20.92;50.76
15382;BME280;7789;51.364;12.358;2023-05-25T09:57:52;101262.59;;;20.90;51.07
15382;BME280;7789;51.364;12.358;2023-05-25T10:02:55;101273.72;;;20.85;49.62
15382;BME280;7789;51.364;12.358;2023-05-25T10:08:01;101267.91;;;20.74;49.22
15382;BME280;7789;51.364;12.358;2023-05-25T10:13:07;101267.22;;;20.80;49.57
15382;BME280;7789;51.364;12.358;2023-05-25T10:18:12;101266.81;;;21.15;49.37
15382;BME280;7789;51.364;12.358;2023-05-25T10:23:19;101267.91;;;21.36;48.07
15382;BME280;7789;51.364;12.358;2023-05-25T10:28:27;101261.81;;;21.58;48.47
15382;BME280;7789;51.364;12.358;2023-05-25T10:33:32;101269.63;;;21.68;49.18
15382;BME280;7789;51.364;12.358;2023-05-25T10:38:38;101270.72;;;21.81;48.50
15382;BME280;7789;51.364;12.358;2023-05-25T10:43:42;101265.53;;;21.88;46.76
15382;BME280;7789;51.364;12.358;2023-05-25T10:48:47;101266.88;;;21.84;45.53
15382;BME280;7789;51.364;12.358;2023-05-25T10:53:59;101255.19;;;21.93;45.36
15382;BME280;7789;51.364;12.358;2023-05-25T10:59:03;101255.69;;;21.88;46.12
15382;BME280;7789;51.364;12.358;2023-05-25T11:04:15;101258.44;;;21.72;45.36
15382;BME280;7789;51.364;12.358;2023-05-25T11:09:25;101241.09;;;21.84;47.87
15382;BME280;7789;51.364;12.358;2023-05-25T11:14:29;101243.13;;;22.05;47.00
15382;BME280;7789;51.364;12.358;2023-05-25T11:19:40;101240.00;;;22.16;46.22
15382;BME280;7789;51.364;12.358;2023-05-25T11:24:46;101237.06;;;22.11;45.53
15382;BME280;7789;51.364;12.358;2023-05-25T11:29:50;101244.34;;;22.39;45.54
15382;BME280;7789;51.364;12.358;2023-05-25T11:34:55;101232.72;;;22.32;44.60
15382;BME280;7789;51.364;12.358;2023-05-25T11:40:06;101227.19;;;22.19;43.24
15382;BME280;7789;51.364;12.358;2023-05-25T11:45:10;101232.63;;;22.26;44.79
15382;BME280;7789;51.364;12.358;2023-05-25T11:50:16;101228.66;;;21.99;44.08
15382;BME280;7789;51.364;12.358;2023-05-25T11:55:21;101222.09;;;22.10;46.37
15382;BME280;7789;51.364;12.358;2023-05-25T12:00:25;101228.09;;;22.26;45.73
15382;BME280;7789;51.364;12.358;2023-05-25T12:05:36;101217.63;;;22.47;45.77
15382;BME280;7789;51.364;12.358;2023-05-25T12:10:49;101221.00;;;22.41;44.54
15382;BME280;7789;51.364;12.358;2023-05-25T12:15:54;101220.69;;;22.36;43.33
15382;BME280;7789;51.364;12.358;2023-05-25T12:20:58;101201.72;;;22.54;44.39
15382;BME280;7789;51.364;12.358;2023-05-25T12:26:10;101206.03;;;22.55;42.78
15382;BME280;7789;51.364;12.358;2023-05-25T12:31:21;101202.94;;;22.29;43.51
15382;BME280;7789;51.364;12.358;2023-05-25T12:36:35;101197.13;;;22.25;43.18
15382;BME280;7789;51.364;12.358;2023-05-25T12:41:58;101196.00;;;22.42;43.70
15382;BME280;7789;51.364;12.358;2023-05-25T12:47:10;101187.72;;;22.37;42.79
15382;BME280;7789;51.364;12.358;2023-05-25T12:52:31;101192.78;;;22.10;43.79
15382;BME280;7789;51.364;12.358;2023-05-25T12:57:36;101184.69;;;21.81;45.65
15382;BME280;7789;51.364;12.358;2023-05-25T13:02:42;101191.50;;;21.83;45.94
15382;BME280;7789;51.364;12.358;2023-05-25T13:07:49;101181.38;;;21.79;45.17
15382;BME280;7789;51.364;12.358;2023-05-25T13:12:55;101187.66;;;21.63;45.46
15382;BME280;7789;51.364;12.358;2023-05-25T13:17:59;101171.09;;;21.45;45.10
15382;BME280;7789;51.364;12.358;2023-05-25T13:23:02;101163.69;;;21.55;45.67
15382;BME280;7789;51.364;12.358;2023-05-25T13:28:08;101176.16;;;21.63;45.34
15382;BME280;7789;51.364;12.358;2023-05-25T13:33:11;101169.84;;;21.56;45.71
15382;BME280;7789;51.364;12.358;2023-05-25T13:38:14;101169.59;;;21.43;45.63
15382;BME280;7789;51.364;12.358;2023-05-25T13:43:19;101162.09;;;21.46;45.93
15382;BME280;7789;51.364;12.358;2023-05-25T13:48:23;101154.41;;;21.51;46.00
15382;BME280;7789;51.364;12.358;2023-05-25T13:53:26;101159.91;;;21.50;45.87
15382;BME280;7789;51.364;12.358;2023-05-25T13:58:31;101169.06;;;21.47;46.02
15382;BME280;7789;51.364;12.358;2023-05-25T14:03:36;101156.59;;;21.48;46.65
15382;BME280;7789;51.364;12.358;2023-05-25T14:08:39;101156.78;;;21.46;46.29
15382;BME280;7789;51.364;12.358;2023-05-25T14:13:44;101155.00;;;21.39;46.74
15382;BME280;7789;51.364;12.358;2023-05-25T14:18:47;101151.28;;;21.17;47.08
15382;BME280;7789;51.364;12.358;2023-05-25T14:23:51;101149.28;;;21.19;46.15
15382;BME280;7789;51.364;12.358;2023-05-25T14:28:55;101144.91;;;21.26;46.81
15382;BME280;7789;51.364;12.358;2023-05-25T14:33:59;101145.09;;;21.25;47.52
15382;BME280;7789;51.364;12.358;2023-05-25T14:39:03;101148.09;;;21.22;47.51
15382;BME280;7789;51.364;12.358;2023-05-25T14:44:08;101145.97;;;21.17;47.27
15382;BME280;7789;51.364;12.358;2023-05-25T14:49:12;101148.91;;;21.22;47.65
15382;BME280;7789;51.364;12.358;2023-05-25T14:54:15;101137.28;;;21.23;48.56
15382;BME280;7789;51.364;12.358;2023-05-25T14:59:20;101137.59;;;21.28;49.39
15382;BME280;7789;51.364;12.358;2023-05-25T15:04:29;101144.22;;;21.32;48.61
15382;BME280;7789;51.364;12.358;2023-05-25T15:09:33;101138.69;;;21.34;48.52
15382;BME280;7789;51.364;12.358;2023-05-25T15:14:38;101139.97;;;21.46;49.40
15382;BME280;7789;51.364;12.358;2023-05-25T15:19:43;101146.53;;;21.35;48.75
15382;BME280;7789;51.364;12.358;2023-05-25T15:24:46;101139.78;;;21.25;48.61
15382;BME280;7789;51.364;12.358;2023-05-25T15:29:53;101147.31;;;21.13;48.48
15382;BME280;7789;51.364;12.358;2023-05-25T15:34:56;101146.84;;;21.02;47.83
15382;BME280;7789;51.364;12.358;2023-05-25T15:40:00;101135.78;;;20.90;47.61
15382;BME280;7789;51.364;12.358;2023-05-25T15:45:05;101137.47;;;20.83;48.28
15382;BME280;7789;51.364;12.358;2023-05-25T15:50:10;101130.81;;;20.79;48.13
15382;BME280;7789;51.364;12.358;2023-05-25T15:55:13;101118.06;;;20.67;48.63
15382;BME280;7789;51.364;12.358;2023-05-25T16:00:19;101116.59;;;20.65;49.38
15382;BME280;7789;51.364;12.358;2023-05-25T16:05:22;101107.13;;;20.62;49.03
15382;BME280;7789;51.364;12.358;2023-05-25T16:10:26;101109.47;;;20.57;49.47
15382;BME280;7789;51.364;12.358;2023-05-25T16:15:30;101114.13;;;20.55;48.75
15382;BME280;7789;51.364;12.358;2023-05-25T16:20:33;101114.78;;;20.49;49.29
15382;BME280;7789;51.364;12.358;2023-05-25T16:25:37;101109.16;;;20.44;50.50
15382;BME280;7789;51.364;12.358;2023-05-25T16:30:42;101114.31;;;20.38;51.24
15382;BME280;7789;51.364;12.358;2023-05-25T16:35:45;101109.34;;;20.35;50.96
15382;BME280;7789;51.364;12.358;2023-05-25T16:40:50;101106.75;;;20.27;51.47
15382;BME280;7789;51.364;12.358;2023-05-25T16:45:56;101104.06;;;20.19;51.41
15382;BME280;7789;51.364;12.358;2023-05-25T16:50:59;101107.41;;;20.13;51.50
15382;BME280;7789;51.364;12.358;2023-05-25T16:56:07;101112.06;;;20.11;51.54
15382;BME280;7789;51.364;12.358;2023-05-25T17:01:13;101102.75;;;20.07;52.28
15382;BME280;7789;51.364;12.358;2023-05-25T17:06:16;101097.28;;;20.00;51.70
15382;BME280;7789;51.364;12.358;2023-05-25T17:11:20;101104.44;;;19.92;51.93
15382;BME280;7789;51.364;12.358;2023-05-25T17:16:29;101111.38;;;19.85;52.53
15382;BME280;7789;51.364;12.358;2023-05-25T17:21:33;101113.38;;;19.83;52.54
15382;BME280;7789;51.364;12.358;2023-05-25T17:26:37;101113.56;;;19.73;52.41
15382;BME280;7789;51.364;12.358;2023-05-25T17:31:44;101110.06;;;19.65;52.96
15382;BME280;7789;51.364;12.358;2023-05-25T17:36:49;101113.88;;;19.54;53.12
15382;BME280;7789;51.364;12.358;2023-05-25T17:41:53;101118.00;;;19.49;53.93
15382;BME280;7789;51.364;12.358;2023-05-25T17:47:03;101125.97;;;19.41;54.30
15382;BME280;7789;51.364;12.358;2023-05-25T17:52:11;101123.44;;;19.31;54.16
15382;BME280;7789;51.364;12.358;2023-05-25T17:57:15;101128.59;;;19.25;54.53
15382;BME280;7789;51.364;12.358;2023-05-25T18:02:22;101123.25;;;19.17;54.30
15382;BME280;7789;51.364;12.358;2023-05-25T18:07:26;101127.50;;;19.10;54.37
15382;BME280;7789;51.364;12.358;2023-05-25T18:12:29;101128.78;;;18.98;54.48
15382;BME280;7789;51.364;12.358;2023-05-25T18:17:34;101129.25;;;18.93;54.75
15382;BME280;7789;51.364;12.358;2023-05-25T18:22:37;101135.34;;;18.86;55.05
15382;BME280;7789;51.364;12.358;2023-05-25T18:27:40;101136.47;;;18.75;55.36
15382;BME280;7789;51.364;12.358;2023-05-25T18:32:45;101139.44;;;18.65;56.01
15382;BME280;7789;51.364;12.358;2023-05-25T18:37:48;101140.34;;;18.56;56.24
15382;BME280;7789;51.364;12.358;2023-05-25T18:42:52;101149.41;;;18.45;57.03
15382;BME280;7789;51.364;12.358;2023-05-25T18:47:57;101143.38;;;18.35;57.52
15382;BME280;7789;51.364;12.358;2023-05-25T18:53:08;101141.78;;;18.25;57.67
15382;BME280;7789;51.364;12.358;2023-05-25T18:58:11;101148.31;;;18.13;58.32
15382;BME280;7789;51.364;12.358;2023-05-25T19:03:16;101150.22;;;18.03;58.63
15382;BME280;7789;51.364;12.358;2023-05-25T19:08:20;101167.19;;;17.92;59.23
15382;BME280;7789;51.364;12.358;2023-05-25T19:13:23;101170.38;;;17.78;59.71
15382;BME280;7789;51.364;12.358;2023-05-25T19:18:28;101169.75;;;17.67;60.47
15382;BME280;7789;51.364;12.358;2023-05-25T19:23:31;101179.56;;;17.57;60.66
15382;BME280;7789;51.364;12.358;2023-05-25T19:28:35;101183.25;;;17.46;61.00
15382;BME280;7789;51.364;12.358;2023-05-25T19:33:40;101196.69;;;17.35;62.27
15382;BME280;7789;51.364;12.358;2023-05-25T19:38:44;101200.50;;;17.23;62.49
15382;BME280;7789;51.364;12.358;2023-05-25T19:43:47;101204.00;;;17.14;62.58
15382;BME280;7789;51.364;12.358;2023-05-25T19:48:52;101207.66;;;17.04;63.65
15382;BME280;7789;51.364;12.358;2023-05-25T19:53:55;101207.72;;;16.94;64.51
15382;BME280;7789;51.364;12.358;2023-05-25T19:58:58;101209.56;;;16.84;65.05
15382;BME280;7789;51.364;12.358;2023-05-25T20:04:05;101211.25;;;16.76;66.19
15382;BME280;7789;51.364;12.358;2023-05-25T20:09:08;101209.50;;;16.67;66.53
15382;BME280;7789;51.364;12.358;2023-05-25T20:14:13;101216.59;;;16.57;66.41
15382;BME280;7789;51.364;12.358;2023-05-25T20:19:20;101219.25;;;16.48;67.08
15382;BME280;7789;51.364;12.358;2023-05-25T20:24:24;101220.81;;;16.41;67.64
15382;BME280;7789;51.364;12.358;2023-05-25T20:29:27;101222.59;;;16.31;68.21
15382;BME280;7789;51.364;12.358;2023-05-25T20:34:32;101224.94;;;16.24;68.06
15382;BME280;7789;51.364;12.358;2023-05-25T20:39:35;101228.56;;;16.14;68.29
15382;BME280;7789;51.364;12.358;2023-05-25T20:44:38;101231.50;;;16.11;69.13
15382;BME280;7789;51.364;12.358;2023-05-25T20:49:43;101233.03;;;16.04;69.42
15382;BME280;7789;51.364;12.358;2023-05-25T20:54:46;101233.44;;;15.99;70.05
15382;BME280;7789;51.364;12.358;2023-05-25T20:59:50;101240.50;;;15.89;70.04
15382;BME280;7789;51.364;12.358;2023-05-25T21:04:56;101247.31;;;15.82;70.90
15382;BME280;7789;51.364;12.358;2023-05-25T21:09:59;101252.28;;;15.76;71.68
15382;BME280;7789;51.364;12.358;2023-05-25T21:15:04;101250.06;;;15.71;71.37
15382;BME280;7789;51.364;12.358;2023-05-25T21:20:10;101251.72;;;15.63;72.40
15382;BME280;7789;51.364;12.358;2023-05-25T21:25:13;101260.44;;;15.54;71.83
15382;BME280;7789;51.364;12.358;2023-05-25T21:30:16;101257.50;;;15.47;72.91
15382;BME280;7789;51.364;12.358;2023-05-25T21:35:23;101258.19;;;15.40;73.33
15382;BME280;7789;51.364;12.358;2023-05-25T21:40:26;101256.91;;;15.34;73.82
15382;BME280;7789;51.364;12.358;2023-05-25T21:45:29;101260.19;;;15.27;73.96
15382;BME280;7789;51.364;12.358;2023-05-25T21:50:34;101251.84;;;15.22;74.87
15382;BME280;7789;51.364;12.358;2023-05-25T21:55:37;101263.06;;;15.14;74.97
15382;BME280;7789;51.364;12.358;2023-05-25T22:00:41;101266.34;;;15.07;75.24
15382;BME280;7789;51.364;12.358;2023-05-25T22:05:46;101265.06;;;15.01;76.04
15382;BME280;7789;51.364;12.358;2023-05-25T22:10:49;101269.06;;;14.96;76.34
15382;BME280;7789;51.364;12.358;2023-05-25T22:15:53;101271.50;;;14.88;76.87
15382;BME280;7789;51.364;12.358;2023-05-25T22:20:57;101268.31;;;14.84;77.69
15382;BME280;7789;51.364;12.358;2023-05-25T22:26:01;101262.97;;;14.75;78.16
15382;BME280;7789;51.364;12.358;2023-05-25T22:31:05;101260.03;;;14.69;78.36
15382;BME280;7789;51.364;12.358;2023-05-25T22:36:11;101270.00;;;14.65;78.73
15382;BME280;7789;51.364;12.358;2023-05-25T22:41:14;101266.19;;;14.58;79.38
15382;BME280;7789;51.364;12.358;2023-05-25T22:46:17;101269.22;;;14.54;79.74
15382;BME280;7789;51.364;12.358;2023-05-25T22:51:22;101267.00;;;14.49;79.67
15382;BME280;7789;51.364;12.358;2023-05-25T22:56:26;101278.84;;;14.44;80.26
15382;BME280;7789;51.364;12.358;2023-05-25T23:01:29;101279.22;;;14.39;80.87
15382;BME280;7789;51.364;12.358;2023-05-25T23:06:34;101271.97;;;14.32;81.65
15382;BME280;7789;51.364;12.358;2023-05-25T23:11:37;101274.16;;;14.27;81.49
15382;BME280;7789;51.364;12.358;2023-05-25T23:16:41;101270.22;;;14.21;82.49
15382;BME280;7789;51.364;12.358;2023-05-25T23:21:46;101269.88;;;14.15;83.32
15382;BME280;7789;51.364;12.358;2023-05-25T23:26:50;101265.81;;;14.11;83.60
15382;BME280;7789;51.364;12.358;2023-05-25T23:31:53;101273.25;;;14.06;83.94
15382;BME280;7789;51.364;12.358;2023-05-25T23:36:58;101272.91;;;13.99;85.25
15382;BME280;7789;51.364;12.358;2023-05-25T23:42:02;101267.19;;;13.94;85.58
15382;BME280;7789;51.364;12.358;2023-05-25T23:47:05;101266.72;;;13.89;86.01
15382;BME280;7789;51.364;12.358;2023-05-25T23:52:10;101269.00;;;13.83;86.73
15382;BME280;7789;51.364;12.358;2023-05-25T23:57:13;101281.59;;;13.79;87.14
